Time;durP1;ratioP1;P1;durP2;ratioP2;P2;SDS_P1;SDS_P2;PMS_P1;PMS_P2;Temp;Humidity;BMP_temperature;BMP_pressure;BME280_temperature;BME280_humidity;BME280_pressure;Samples;Min_cycle;Max_cycle;Signal;HPM_P1;HPM_P2
2023/09/09 00:00:39;;;;;;;;;;;;;;;19.04;100.00;101618.44;5036400;28;19939;-80
2023/09/09 00:03:25;;;;;;;;;;;;;;;19.03;100.00;101613.16;5042397;28;19939;-81
2023/09/09 00:06:13;;;;;;;;;;;;;;;19.01;100.00;101618.59;5051204;28;20796;-81
2023/09/09 00:08:59;;;;;;;;;;;;;;;18.98;100.00;101614.31;5039207;28;19960;-81
2023/09/09 00:11:44;;;;;;;;;;;;;;;18.96;100.00;101620.75;5028490;28;19939;-81
2023/09/09 00:14:30;;;;;;;;;;;;;;;18.93;100.00;101607.53;5032308;28;19929;-81
2023/09/09 00:17:16;;;;;;;;;;;;;;;18.90;100.00;101610.44;5035054;28;19924;-80
2023/09/09 00:20:02;;;;;;;;;;;;;;;18.89;100.00;101608.72;5054194;28;20409;-82
2023/09/09 00:22:48;;;;;;;;;;;;;;;18.85;100.00;101611.59;5023434;28;20335;-81
2023/09/09 00:25:34;;;;;;;;;;;;;;;18.83;100.00;101602.81;5048460;28;19932;-81
2023/09/09 00:28:20;;;;;;;;;;;;;;;18.81;100.00;101604.75;5009883;28;19964;-82
2023/09/09 00:31:06;;;;;;;;;;;;;;;18.79;100.00;101601.28;5045490;28;19960;-82
2023/09/09 00:33:52;;;;;;;;;;;;;;;18.79;100.00;101603.13;5049277;28;20504;-81
2023/09/09 00:36:38;;;;;;;;;;;;;;;18.77;100.00;101603.22;5025553;28;19966;-82
2023/09/09 00:39:25;;;;;;;;;;;;;;;18.75;100.00;101597.13;5038448;28;21928;-81
2023/09/09 00:42:11;;;;;;;;;;;;;;;18.70;100.00;101592.06;5051865;28;20599;-82
2023/09/09 00:44:56;;;;;;;;;;;;;;;18.70;100.00;101584.00;5052233;28;19925;-81
2023/09/09 00:47:42;;;;;;;;;;;;;;;18.69;100.00;101586.81;5053224;28;19928;-80
2023/09/09 00:50:28;;;;;;;;;;;;;;;18.66;100.00;101584.31;5048035;28;19939;-80
2023/09/09 00:53:13;;;;;;;;;;;;;;;18.65;100.00;101586.16;5039462;28;20360;-80
2023/09/09 00:56:09;;;;;;;;;;;;;;;18.62;100.00;101586.34;5035454;28;19947;-81
2023/09/09 00:58:54;;;;;;;;;;;;;;;18.59;100.00;101582.06;5040348;28;19932;-81
2023/09/09 01:01:40;;;;;;;;;;;;;;;18.58;100.00;101584.88;5041868;28;19955;-82
2023/09/09 01:04:25;;;;;;;;;;;;;;;18.55;100.00;101579.69;5044580;28;19983;-80
2023/09/09 01:07:11;;;;;;;;;;;;;;;18.52;100.00;101580.75;5023493;28;19934;-80
2023/09/09 01:09:57;;;;;;;;;;;;;;;18.51;100.00;101583.56;5041797;28;19924;-81
2023/09/09 01:12:45;;;;;;;;;;;;;;;18.48;100.00;101579.28;5041981;28;20702;-81
2023/09/09 01:15:31;;;;;;;;;;;;;;;18.45;100.00;101579.47;5041239;28;19929;-80
2023/09/09 01:18:17;;;;;;;;;;;;;;;18.43;100.00;101570.66;5057441;28;19955;-80
2023/09/09 01:21:03;;;;;;;;;;;;;;;18.41;100.00;101577.97;5038502;28;20019;-81
2023/09/09 01:23:48;;;;;;;;;;;;;;;18.42;100.00;101582.34;5057293;28;19936;-81
2023/09/09 01:26:34;;;;;;;;;;;;;;;18.39;100.00;101578.06;5055606;28;20383;-82
2023/09/09 01:29:20;;;;;;;;;;;;;;;18.40;100.00;101573.53;5054912;28;19932;-81
2023/09/09 01:32:06;;;;;;;;;;;;;;;18.39;100.00;101574.50;5041108;28;20284;-80
2023/09/09 01:34:51;;;;;;;;;;;;;;;18.38;100.00;101581.72;5052500;28;20580;-81
2023/09/09 01:37:38;;;;;;;;;;;;;;;18.37;100.00;101576.44;5018945;28;19929;-81
2023/09/09 01:40:26;;;;;;;;;;;;;;;18.37;100.00;101587.16;5049487;28;20331;-81
2023/09/09 01:43:12;;;;;;;;;;;;;;;18.35;100.00;101578.38;5039780;28;20396;-81
2023/09/09 01:45:58;;;;;;;;;;;;;;;18.34;100.00;101571.31;5051135;28;19940;-81
2023/09/09 01:48:44;;;;;;;;;;;;;;;18.31;100.00;101577.72;5051816;28;20382;-82
2023/09/09 01:51:32;;;;;;;;;;;;;;;18.31;100.00;101572.38;5036876;28;19932;-82
2023/09/09 01:54:20;;;;;;;;;;;;;;;18.30;100.00;101563.44;5051205;28;19952;-83
2023/09/09 01:57:06;;;;;;;;;;;;;;;18.27;100.00;101563.66;5038904;28;19928;-79
2023/09/09 01:59:52;;;;;;;;;;;;;;;18.26;100.00;101572.63;5051645;28;20025;-82
2023/09/09 02:02:38;;;;;;;;;;;;;;;18.23;100.00;101572.88;5052674;28;19929;-80
2023/09/09 02:05:23;;;;;;;;;;;;;;;18.21;100.00;101569.44;5039280;28;20434;-81
2023/09/09 02:08:09;;;;;;;;;;;;;;;18.18;100.00;101574.97;5053340;28;19932;-81
2023/09/09 02:10:58;;;;;;;;;;;;;;;18.17;100.00;101570.59;5052658;28;19977;-82
2023/09/09 02:13:43;;;;;;;;;;;;;;;18.14;100.00;101574.31;5050557;28;20011;-81
2023/09/09 02:16:29;;;;;;;;;;;;;;;18.15;100.00;101576.03;5048684;28;19936;-80
2023/09/09 02:19:15;;;;;;;;;;;;;;;18.14;100.00;101581.53;5051732;28;19974;-82
2023/09/09 02:22:00;;;;;;;;;;;;;;;18.12;100.00;101578.94;5037122;28;19928;-81
2023/09/09 02:24:47;;;;;;;;;;;;;;;18.13;100.00;101572.63;5035768;28;20969;-81
2023/09/09 02:27:32;;;;;;;;;;;;;;;18.13;100.00;101574.41;5046919;28;20652;-81
2023/09/09 02:30:18;;;;;;;;;;;;;;;18.10;100.00;101574.63;5036453;28;19939;-82
2023/09/09 02:33:04;;;;;;;;;;;;;;;18.03;100.00;101571.47;5051034;28;19928;-81
2023/09/09 02:35:50;;;;;;;;;;;;;;;17.95;100.00;101577.34;5035154;28;19951;-82
2023/09/09 02:38:38;;;;;;;;;;;;;;;17.90;100.00;101561.56;5033878;28;20583;-81
2023/09/09 02:41:24;;;;;;;;;;;;;;;17.87;100.00;101566.28;5030678;28;19928;-82
2023/09/09 02:44:09;;;;;;;;;;;;;;;17.82;100.00;101558.50;5047810;28;19932;-81
2023/09/09 02:46:55;;;;;;;;;;;;;;;17.78;100.00;101565.88;5047831;28;19928;-81
2023/09/09 02:49:43;;;;;;;;;;;;;;;17.73;100.00;101562.66;5037901;28;19970;-81
2023/09/09 02:52:29;;;;;;;;;;;;;;;17.71;100.00;101553.84;5034894;28;20440;-82
2023/09/09 02:55:15;;;;;;;;;;;;;;;17.67;100.00;101551.47;5051894;28;21957;-81
2023/09/09 02:58:00;;;;;;;;;;;;;;;17.65;100.00;101548.88;5052679;28;20289;-81
2023/09/09 03:00:47;;;;;;;;;;;;;;;17.63;100.00;101548.13;5050460;28;19936;-81
2023/09/09 03:03:33;;;;;;;;;;;;;;;17.60;100.00;101551.03;5022788;28;20407;-81
2023/09/09 03:06:19;;;;;;;;;;;;;;;17.57;100.00;101548.53;5033702;28;19928;-81
2023/09/09 03:09:06;;;;;;;;;;;;;;;17.54;100.00;101546.91;5049651;28;20430;-81
2023/09/09 03:11:53;;;;;;;;;;;;;;;17.50;100.00;101551.59;5052139;28;19928;-80
2023/09/09 03:14:42;;;;;;;;;;;;;;;17.47;100.00;101551.81;5045636;28;19925;-80
2023/09/09 03:17:30;;;;;;;;;;;;;;;17.45;100.00;101553.72;5043696;28;20038;-80
2023/09/09 03:20:16;;;;;;;;;;;;;;;17.44;100.00;101551.97;5035486;28;19932;-82
2023/09/09 03:23:02;;;;;;;;;;;;;;;17.43;100.00;101557.47;5034463;28;19928;-82
2023/09/09 03:25:47;;;;;;;;;;;;;;;17.42;100.00;101561.94;5033715;28;20421;-81
2023/09/09 03:28:33;;;;;;;;;;;;;;;17.40;100.00;101560.31;5049750;28;20019;-82
2023/09/09 03:31:19;;;;;;;;;;;;;;;17.37;100.00;101550.66;5021700;28;20014;-81
2023/09/09 03:34:04;;;;;;;;;;;;;;;17.36;100.00;101556.97;5052843;28;20043;-80
2023/09/09 03:36:50;;;;;;;;;;;;;;;17.34;100.00;101558.88;5050521;28;20049;-82
2023/09/09 03:39:36;;;;;;;;;;;;;;;17.33;100.00;101559.84;5032985;28;19932;-82
2023/09/09 03:42:22;;;;;;;;;;;;;;;17.30;100.00;101562.69;5049666;28;19967;-82
2023/09/09 03:45:09;;;;;;;;;;;;;;;17.29;100.00;101566.34;5032807;28;19971;-81
2023/09/09 03:47:55;;;;;;;;;;;;;;;17.24;100.00;101559.47;5045971;28;20019;-81
2023/09/09 03:50:41;;;;;;;;;;;;;;;17.21;100.00;101554.31;5033204;28;19932;-81
2023/09/09 03:53:27;;;;;;;;;;;;;;;17.14;100.00;101552.97;5050060;28;21401;-81
2023/09/09 03:56:12;;;;;;;;;;;;;;;17.11;100.00;101566.56;5035176;28;19940;-81
2023/09/09 03:59:10;;;;;;;;;;;;;;;17.10;100.00;101567.47;5049123;28;19929;-82
2023/09/09 04:01:56;;;;;;;;;;;;;;;17.08;100.00;101561.38;5044149;28;20371;-80
2023/09/09 04:04:42;;;;;;;;;;;;;;;17.07;100.00;101565.00;5045524;28;20927;-81
2023/09/09 04:07:29;;;;;;;;;;;;;;;17.05;100.00;101567.78;5049623;28;19928;-82
2023/09/09 04:10:22;;;;;;;;;;;;;;;17.04;100.00;101565.19;5046637;28;20303;-82
2023/09/09 04:13:07;;;;;;;;;;;;;;;17.01;100.00;101554.66;5051344;28;19924;-82
2023/09/09 04:15:53;;;;;;;;;;;;;;;16.99;100.00;101553.91;5034996;28;20509;-82
2023/09/09 04:18:42;;;;;;;;;;;;;;;16.97;100.00;101553.97;5049776;28;19932;-81
2023/09/09 04:21:28;;;;;;;;;;;;;;;16.97;100.00;101560.19;5037123;28;20023;-82
2023/09/09 04:24:17;;;;;;;;;;;;;;;16.95;100.00;101550.56;5050883;28;19989;-82
2023/09/09 04:27:02;;;;;;;;;;;;;;;16.95;100.00;101559.41;5036820;28;20393;-82
2023/09/09 04:29:51;;;;;;;;;;;;;;;16.94;100.00;101549.69;5040239;28;19932;-81
2023/09/09 04:32:37;;;;;;;;;;;;;;;16.93;100.00;101555.97;5053989;28;19960;-83
2023/09/09 04:35:22;;;;;;;;;;;;;;;16.93;100.00;101561.34;5036364;28;20055;-80
2023/09/09 04:38:09;;;;;;;;;;;;;;;16.92;100.00;101556.94;5048345;28;20689;-81
2023/09/09 04:40:54;;;;;;;;;;;;;;;16.91;100.00;101557.91;5033807;28;20028;-81
2023/09/09 04:43:40;;;;;;;;;;;;;;;16.88;100.00;101550.06;5038594;28;19932;-81
2023/09/09 04:46:26;;;;;;;;;;;;;;;16.89;100.00;101554.44;5050857;28;19955;-81
2023/09/09 04:49:11;;;;;;;;;;;;;;;16.88;100.00;101557.22;5050572;28;20317;-81
2023/09/09 04:51:57;;;;;;;;;;;;;;;16.89;100.00;101556.28;5038412;28;19924;-82
2023/09/09 04:54:43;;;;;;;;;;;;;;;16.86;100.00;101562.66;5054582;28;19928;-81
2023/09/09 04:57:28;;;;;;;;;;;;;;;16.87;100.00;101563.50;5054272;28;19940;-81
2023/09/09 05:00:17;;;;;;;;;;;;;;;16.84;100.00;101567.25;5050835;28;19928;-80
2023/09/09 05:03:03;;;;;;;;;;;;;;;16.82;100.00;101569.13;5049657;28;19932;-80
2023/09/09 05:05:48;;;;;;;;;;;;;;;16.81;100.00;101575.44;5050665;28;19932;-81
2023/09/09 05:08:34;;;;;;;;;;;;;;;16.79;100.00;101577.34;5051273;28;19928;-80
2023/09/09 05:11:20;;;;;;;;;;;;;;;16.76;100.00;101567.72;5033071;28;19928;-81
2023/09/09 05:14:05;;;;;;;;;;;;;;;16.76;100.00;101572.19;5053133;28;19939;-82
2023/09/09 05:16:51;;;;;;;;;;;;;;;16.73;100.00;101575.06;5050032;28;20414;-82
2023/09/09 05:19:37;;;;;;;;;;;;;;;16.72;100.00;101576.84;5033716;28;20529;-80
2023/09/09 05:22:23;;;;;;;;;;;;;;;16.71;100.00;101569.78;5037153;28;19924;-81
2023/09/09 05:25:08;;;;;;;;;;;;;;;16.72;100.00;101584.03;5053301;28;19943;-80
2023/09/09 05:27:56;;;;;;;;;;;;;;;16.70;100.00;101578.75;5051977;28;19929;-79
2023/09/09 05:30:42;;;;;;;;;;;;;;;16.70;100.00;101578.75;5030490;28;19935;-80
2023/09/09 05:33:28;;;;;;;;;;;;;;;16.71;100.00;101575.13;5045085;28;19931;-81
2023/09/09 05:36:13;;;;;;;;;;;;;;;16.71;100.00;101580.47;5052849;28;19928;-82
2023/09/09 05:38:59;;;;;;;;;;;;;;;16.72;100.00;101584.88;5048915;28;19928;-77
2023/09/09 05:41:45;;;;;;;;;;;;;;;16.76;100.00;101593.56;5038000;28;20656;-76
2023/09/09 05:44:31;;;;;;;;;;;;;;;16.81;100.00;101594.16;5052663;28;20447;-78
2023/09/09 05:47:16;;;;;;;;;;;;;;;16.84;100.00;101585.97;5049146;28;19939;-79
2023/09/09 05:50:05;;;;;;;;;;;;;;;16.86;100.00;101589.41;5046597;28;19943;-78
2023/09/09 05:52:51;;;;;;;;;;;;;;;16.91;100.00;101597.13;5039383;28;19935;-79
2023/09/09 05:55:36;;;;;;;;;;;;;;;16.93;100.00;101606.78;5049362;28;20019;-80
2023/09/09 05:58:22;;;;;;;;;;;;;;;16.96;100.00;101601.25;5037478;28;20023;-81
2023/09/09 06:01:08;;;;;;;;;;;;;;;17.02;100.00;101601.88;5032730;28;19993;-79
2023/09/09 06:03:54;;;;;;;;;;;;;;;17.05;100.00;101601.69;5050611;28;19933;-79
2023/09/09 06:06:40;;;;;;;;;;;;;;;17.08;100.00;101596.16;5051983;28;19928;-79
2023/09/09 06:09:25;;;;;;;;;;;;;;;17.12;100.00;101600.38;5050545;28;19935;-79
2023/09/09 06:12:11;;;;;;;;;;;;;;;17.17;100.00;101598.25;5036228;28;19935;-79
2023/09/09 06:14:57;;;;;;;;;;;;;;;17.21;100.00;101594.44;5021890;28;21814;-83
2023/09/09 06:17:42;;;;;;;;;;;;;;;17.26;100.00;101596.81;5051041;28;19943;-83
2023/09/09 06:20:31;;;;;;;;;;;;;;;17.33;100.00;101594.63;5051632;28;19955;-84
2023/09/09 06:23:17;;;;;;;;;;;;;;;17.41;100.00;101603.03;5037085;28;20029;-83
2023/09/09 06:26:02;;;;;;;;;;;;;;;17.50;100.00;101607.81;5049237;28;19921;-83
2023/09/09 06:28:48;;;;;;;;;;;;;;;17.61;100.00;101606.28;5051678;28;20458;-83
2023/09/09 06:31:36;;;;;;;;;;;;;;;17.70;100.00;101610.19;5038165;28;20223;-85
2023/09/09 06:34:22;;;;;;;;;;;;;;;17.78;100.00;101614.09;5025548;28;20343;-85
2023/09/09 06:37:09;;;;;;;;;;;;;;;17.85;100.00;101627.97;5038180;28;19939;-83
2023/09/09 06:39:55;;;;;;;;;;;;;;;17.94;100.00;101629.19;5054740;28;19940;-82
2023/09/09 06:42:41;;;;;;;;;;;;;;;18.04;100.00;101634.81;5052544;28;20051;-85
2023/09/09 06:45:27;;;;;;;;;;;;;;;18.13;100.00;101628.00;5050980;28;19936;-84
2023/09/09 06:48:17;;;;;;;;;;;;;;;18.21;100.00;101625.72;5042307;28;20342;-82
2023/09/09 06:51:02;;;;;;;;;;;;;;;18.30;100.00;101633.13;5052792;28;20467;-85
2023/09/09 06:53:48;;;;;;;;;;;;;;;18.36;100.00;101629.19;5056824;28;19933;-84
2023/09/09 06:56:34;;;;;;;;;;;;;;;18.44;100.00;101632.22;5054975;28;19947;-84
2023/09/09 06:59:19;;;;;;;;;;;;;;;18.51;100.00;101632.66;5057245;28;19928;-83
2023/09/09 07:02:06;;;;;;;;;;;;;;;18.62;100.00;101628.41;5045713;28;19936;-83
2023/09/09 07:04:53;;;;;;;;;;;;;;;18.70;100.00;101637.63;5061102;28;20150;-83
2023/09/09 07:07:38;;;;;;;;;;;;;;;18.79;100.00;101633.47;5060536;28;20363;-83
2023/09/09 07:10:24;;;;;;;;;;;;;;;18.86;100.00;101637.47;5059822;28;21875;-86
2023/09/09 07:13:10;;;;;;;;;;;;;;;18.96;100.00;101643.06;5042641;28;19978;-84
2023/09/09 07:15:55;;;;;;;;;;;;;;;19.12;100.00;101636.69;5060190;28;19927;-80
2023/09/09 07:18:41;;;;;;;;;;;;;;;19.22;100.00;101642.25;5057639;28;19932;-83
2023/09/09 07:21:27;;;;;;;;;;;;;;;19.28;100.00;101649.88;5059663;28;19928;-83
2023/09/09 07:24:12;;;;;;;;;;;;;;;19.33;100.00;101655.78;5055703;28;20253;-80
2023/09/09 07:27:04;;;;;;;;;;;;;;;19.37;100.00;101645.69;5057900;28;21188;-82
2023/09/09 07:29:50;;;;;;;;;;;;;;;19.44;100.00;101651.50;5053947;28;19928;-80
2023/09/09 07:32:35;;;;;;;;;;;;;;;19.52;100.00;101649.13;5058667;28;20303;-81
2023/09/09 07:35:22;;;;;;;;;;;;;;;19.63;100.00;101651.91;5056869;28;19932;-79
2023/09/09 07:38:10;;;;;;;;;;;;;;;19.73;100.00;101662.84;5041121;28;19971;-79
2023/09/09 07:40:56;;;;;;;;;;;;;;;19.82;100.00;101658.63;5042767;28;20418;-81
2023/09/09 07:43:44;;;;;;;;;;;;;;;19.84;100.00;101664.78;5059280;28;19928;-82
2023/09/09 07:46:30;;;;;;;;;;;;;;;19.91;100.00;101665.16;5063073;28;19956;-83
2023/09/09 07:49:21;;;;;;;;;;;;;;;19.98;100.00;101662.94;5063834;28;19928;-81
2023/09/09 07:52:09;;;;;;;;;;;;;;;20.03;100.00;101660.75;5063405;28;19932;-81
2023/09/09 07:54:55;;;;;;;;;;;;;;;20.12;100.00;101667.28;5047477;28;19928;-83
2023/09/09 07:57:41;;;;;;;;;;;;;;;20.17;100.00;101662.44;5062194;28;20866;-81
2023/09/09 08:00:26;;;;;;;;;;;;;;;20.25;100.00;101667.25;5060767;28;20464;-83
2023/09/09 08:03:12;;;;;;;;;;;;;;;20.35;100.00;101668.28;5064634;28;20019;-82
2023/09/09 08:06:02;;;;;;;;;;;;;;;20.47;100.00;101671.88;5034645;28;20474;-82
2023/09/09 08:08:48;;;;;;;;;;;;;;;20.62;100.00;101672.56;5046767;28;20016;-83
2023/09/09 08:11:33;;;;;;;;;;;;;;;20.72;100.00;101678.97;5061665;28;19940;-81
2023/09/09 08:14:19;;;;;;;;;;;;;;;20.83;100.00;101677.28;5045704;28;19955;-81
2023/09/09 08:17:07;;;;;;;;;;;;;;;20.93;100.00;101672.97;5062360;28;19932;-82
2023/09/09 08:19:53;;;;;;;;;;;;;;;21.04;100.00;101677.53;5054700;28;20299;-79
2023/09/09 08:22:42;;;;;;;;;;;;;;;21.13;100.00;101676.81;5063219;28;19928;-80
2023/09/09 08:25:32;;;;;;;;;;;;;;;21.20;100.00;101679.88;5063528;28;20455;-79
2023/09/09 08:28:18;;;;;;;;;;;;;;;21.27;100.00;101678.44;5063212;28;19924;-79
2023/09/09 08:31:06;;;;;;;;;;;;;;;21.37;100.00;101675.00;5062830;28;20927;-81
2023/09/09 08:33:51;;;;;;;;;;;;;;;21.49;100.00;101675.88;5063191;28;19940;-80
2023/09/09 08:36:37;;;;;;;;;;;;;;;21.61;100.00;101674.91;5048401;28;20344;-80
2023/09/09 08:39:24;;;;;;;;;;;;;;;21.77;100.00;101679.94;5047410;28;19929;-79
2023/09/09 08:42:21;;;;;;;;;;;;;;;21.84;100.00;101675.78;5041869;28;19936;-80
2023/09/09 08:45:24;;;;;;;;;;;;;;;21.92;100.00;101685.97;5041916;28;19924;-80
2023/09/09 08:48:10;;;;;;;;;;;;;;;22.01;100.00;101675.41;5043675;28;19932;-80
2023/09/09 08:50:57;;;;;;;;;;;;;;;22.07;100.00;101686.53;5025949;28;19924;-80
2023/09/09 08:53:43;;;;;;;;;;;;;;;22.16;100.00;101686.78;5043571;28;19925;-79
2023/09/09 08:56:28;;;;;;;;;;;;;;;22.26;100.00;101690.41;5039478;28;19928;-80
2023/09/09 08:59:14;;;;;;;;;;;;;;;22.34;100.00;101690.63;5055262;28;19928;-80
2023/09/09 09:02:00;;;;;;;;;;;;;;;22.50;100.00;101689.38;5040143;28;19940;-79
2023/09/09 09:04:48;;;;;;;;;;;;;;;22.70;100.00;101694.97;5041013;28;19924;-80
2023/09/09 09:07:34;;;;;;;;;;;;;;;22.85;100.00;101696.38;5041269;28;19920;-81
2023/09/09 09:10:20;;;;;;;;;;;;;;;22.98;100.00;101692.66;5054729;28;19928;-80
2023/09/09 09:13:06;;;;;;;;;;;;;;;23.05;100.00;101704.63;5043159;28;19924;-79
2023/09/09 09:15:51;;;;;;;;;;;;;;;23.11;100.00;101705.94;5040840;28;20015;-80
2023/09/09 09:18:37;;;;;;;;;;;;;;;23.18;100.00;101699.88;5042049;28;19932;-79
2023/09/09 09:21:22;;;;;;;;;;;;;;;23.27;100.00;101703.59;5042135;28;19940;-79
2023/09/09 09:24:08;;;;;;;;;;;;;;;23.33;100.00;101699.56;5043311;28;19986;-79
2023/09/09 09:26:55;;;;;;;;;;;;;;;23.35;100.00;101697.59;5040524;28;19928;-79
2023/09/09 09:29:41;;;;;;;;;;;;;;;23.43;100.00;101697.78;5041732;28;19925;-79
2023/09/09 09:32:38;;;;;;;;;;;;;;;23.51;100.00;101707.03;5028073;28;19925;-80
2023/09/09 09:35:28;;;;;;;;;;;;;;;23.49;100.00;101701.81;5042376;28;20010;-78
2023/09/09 09:38:14;;;;;;;;;;;;;;;23.55;100.00;101711.19;5041465;28;20098;-79
2023/09/09 09:41:00;;;;;;;;;;;;;;;23.60;100.00;101703.56;5047938;28;19933;-76
2023/09/09 09:43:46;;;;;;;;;;;;;;;23.64;100.00;101709.53;5063163;28;19924;-78
2023/09/09 09:46:31;;;;;;;;;;;;;;;23.69;100.00;101704.59;5044177;28;20043;-79
2023/09/09 09:49:17;;;;;;;;;;;;;;;23.77;100.00;101707.47;5045543;28;20060;-80
2023/09/09 09:52:03;;;;;;;;;;;;;;;23.89;100.00;101710.91;5046536;28;20006;-79
2023/09/09 09:54:53;;;;;;;;;;;;;;;23.93;100.00;101706.97;5062041;28;19959;-79
2023/09/09 09:57:38;;;;;;;;;;;;;;;23.96;100.00;101705.84;5045892;28;20399;-79
2023/09/09 10:00:24;;;;;;;;;;;;;;;23.96;100.00;101693.16;5044282;28;20019;-79
2023/09/09 10:03:10;;;;;;;;;;;;;;;24.00;100.00;101700.00;5032213;28;19940;-78
2023/09/09 10:05:56;;;;;;;;;;;;;;;23.99;100.00;101698.31;5032561;28;19933;-79
2023/09/09 10:08:41;;;;;;;;;;;;;;;23.99;100.00;101692.91;5060709;28;19931;-79
2023/09/09 10:11:29;;;;;;;;;;;;;;;23.94;100.00;101689.75;5047046;28;19932;-79
2023/09/09 10:14:14;;;;;;;;;;;;;;;23.93;100.00;101697.97;5045141;28;19954;-80
2023/09/09 10:17:00;;;;;;;;;;;;;;;23.95;100.00;101687.88;5038103;28;19985;-84
2023/09/09 10:19:46;;;;;;;;;;;;;;;24.00;100.00;101688.31;5043551;28;20515;-78
2023/09/09 10:22:34;;;;;;;;;;;;;;;24.03;100.00;101693.47;5030183;28;19935;-81
2023/09/09 10:25:20;;;;;;;;;;;;;;;24.09;100.00;101692.09;5043788;28;20674;-80
2023/09/09 10:28:05;;;;;;;;;;;;;;;24.12;100.00;101697.22;5059627;28;19924;-80
2023/09/09 10:30:51;;;;;;;;;;;;;;;24.11;100.00;101695.50;5058595;28;19939;-81
2023/09/09 10:33:37;;;;;;;;;;;;;;;24.10;100.00;101696.50;5028287;28;19935;-81
2023/09/09 10:36:23;;;;;;;;;;;;;;;24.13;100.00;101694.38;5043365;28;19964;-81
2023/09/09 10:39:12;;;;;;;;;;;;;;;24.18;100.00;101695.81;5054784;28;19925;-81
2023/09/09 10:41:58;;;;;;;;;;;;;;;24.20;100.00;101691.13;5033420;28;19979;-80
2023/09/09 10:44:48;;;;;;;;;;;;;;;24.23;100.00;101691.69;5036231;28;19935;-82
2023/09/09 10:47:34;;;;;;;;;;;;;;;24.22;100.00;101695.41;5033123;28;20002;-83
2023/09/09 10:50:19;;;;;;;;;;;;;;;24.24;100.00;101698.81;5034286;28;19924;-82
2023/09/09 10:53:24;;;;;;;;;;;;;;;24.27;100.00;101695.84;5033966;28;19929;-82
2023/09/09 10:56:13;;;;;;;;;;;;;;;24.33;100.00;101699.81;5051857;28;19951;-83
2023/09/09 10:58:58;;;;;;;;;;;;;;;24.43;100.00;101689.00;5035320;28;19929;-81
2023/09/09 11:01:44;;;;;;;;;;;;;;;24.49;100.00;101698.41;5034173;28;19924;-81
2023/09/09 11:04:30;;;;;;;;;;;;;;;24.50;100.00;101692.88;5036802;28;19936;-82
2023/09/09 11:07:16;;;;;;;;;;;;;;;24.55;100.00;101692.44;5035185;28;19937;-81
2023/09/09 11:10:02;;;;;;;;;;;;;;;24.61;100.00;101700.00;5037869;28;19979;-81
2023/09/09 11:12:49;;;;;;;;;;;;;;;24.67;100.00;101693.13;5047434;28;19929;-83
2023/09/09 11:15:35;;;;;;;;;;;;;;;24.71;100.00;101689.16;5015724;28;20265;-81
2023/09/09 11:18:20;;;;;;;;;;;;;;;24.75;98.68;101687.03;5022314;28;20870;-80
2023/09/09 11:21:06;;;;;;;;;;;;;;;24.77;98.08;101691.31;5034706;28;20012;-81
2023/09/09 11:23:52;;;;;;;;;;;;;;;24.78;96.90;101690.28;5034579;28;20019;-82
2023/09/09 11:26:38;;;;;;;;;;;;;;;24.82;97.66;101693.59;5022633;28;19924;-82
2023/09/09 11:29:24;;;;;;;;;;;;;;;24.86;94.13;101695.03;5022381;28;19925;-82
2023/09/09 11:32:09;;;;;;;;;;;;;;;24.87;92.61;101695.88;5035256;28;19932;-82
2023/09/09 11:34:59;;;;;;;;;;;;;;;24.87;93.67;101701.28;5036726;28;19950;-81
2023/09/09 11:37:44;;;;;;;;;;;;;;;24.89;95.47;101699.31;5037969;28;19925;-81
2023/09/09 11:40:30;;;;;;;;;;;;;;;24.90;94.93;101696.44;5037905;28;20002;-82
2023/09/09 11:43:16;;;;;;;;;;;;;;;24.93;92.63;101689.88;5057873;28;19936;-82
2023/09/09 11:46:01;;;;;;;;;;;;;;;24.96;93.30;101695.03;5056216;28;20314;-80
2023/09/09 11:48:47;;;;;;;;;;;;;;;24.95;97.15;101687.91;5054759;28;20699;-81
2023/09/09 11:51:36;;;;;;;;;;;;;;;24.95;94.20;101693.31;5058122;28;19982;-82
2023/09/09 11:54:21;;;;;;;;;;;;;;;24.93;91.23;101698.00;5053511;28;19929;-82
2023/09/09 11:57:10;;;;;;;;;;;;;;;24.92;92.20;101699.00;5054476;28;20362;-83
2023/09/09 11:59:57;;;;;;;;;;;;;;;24.90;92.12;101695.59;5050692;28;19935;-80
2023/09/09 12:02:48;;;;;;;;;;;;;;;24.90;93.46;101695.59;5052477;28;19970;-81
2023/09/09 12:05:34;;;;;;;;;;;;;;;24.85;91.96;101696.03;5038368;28;19935;-83
2023/09/09 12:08:20;;;;;;;;;;;;;;;24.85;90.68;101692.47;5041238;28;19932;-82
2023/09/09 12:11:06;;;;;;;;;;;;;;;24.91;92.75;101692.75;5019068;28;20376;-81
2023/09/09 12:13:52;;;;;;;;;;;;;;;24.89;92.58;101689.31;5036857;28;20330;-83
2023/09/09 12:16:38;;;;;;;;;;;;;;;24.92;93.25;101693.59;5038924;28;19950;-83
2023/09/09 12:19:24;;;;;;;;;;;;;;;24.94;93.75;101695.16;5037045;28;19932;-83
2023/09/09 12:22:09;;;;;;;;;;;;;;;25.05;92.03;101701.44;5053791;28;19939;-84
2023/09/09 12:24:58;;;;;;;;;;;;;;;25.12;91.40;101699.84;5037435;28;20122;-83
2023/09/09 12:27:44;;;;;;;;;;;;;;;25.06;90.79;101701.28;5029603;28;20930;-82
2023/09/09 12:30:42;;;;;;;;;;;;;;;24.99;89.21;101700.13;5037431;28;19929;-83
2023/09/09 12:33:28;;;;;;;;;;;;;;;25.02;92.18;101705.28;5057586;28;21554;-85
2023/09/09 12:36:16;;;;;;;;;;;;;;;25.04;91.84;101699.69;5057879;28;19963;-84
2023/09/09 12:39:20;;;;;;;;;;;;;;;25.04;92.23;101695.16;5057899;28;20651;-83
2023/09/09 12:42:07;;;;;;;;;;;;;;;25.09;88.72;101701.00;5038246;28;19924;-82
2023/09/09 12:44:53;;;;;;;;;;;;;;;25.07;91.62;101696.72;5036889;28;19960;-82
2023/09/09 12:47:38;;;;;;;;;;;;;;;25.13;87.06;101696.16;5037279;28;20063;-82
2023/09/09 12:50:24;;;;;;;;;;;;;;;25.15;90.06;101698.69;5039419;28;19933;-82
2023/09/09 12:53:10;;;;;;;;;;;;;;;25.16;85.69;101701.25;5040952;28;20450;-82
2023/09/09 12:55:56;;;;;;;;;;;;;;;25.19;84.04;101695.56;5038874;28;20023;-84
2023/09/09 12:58:41;;;;;;;;;;;;;;;25.17;81.94;101711.09;5024412;28;20505;-83
2023/09/09 13:01:27;;;;;;;;;;;;;;;25.16;84.04;101706.66;5052837;28;19928;-84
2023/09/09 13:04:13;;;;;;;;;;;;;;;25.15;83.56;101698.69;5041545;28;19937;-84
2023/09/09 13:06:58;;;;;;;;;;;;;;;25.13;80.41;101711.53;5035533;28;20353;-83
2023/09/09 13:09:44;;;;;;;;;;;;;;;25.14;81.60;101703.25;5035796;28;19940;-84
2023/09/09 13:12:30;;;;;;;;;;;;;;;25.14;80.10;101702.41;5021926;28;19924;-82
2023/09/09 13:15:15;;;;;;;;;;;;;;;25.15;78.52;101704.97;5035737;28;19929;-85
2023/09/09 13:18:02;;;;;;;;;;;;;;;25.10;77.95;101712.66;5035603;28;20292;-85
2023/09/09 13:20:49;;;;;;;;;;;;;;;25.11;80.69;101708.97;5037701;28;19947;-85
2023/09/09 13:23:34;;;;;;;;;;;;;;;25.11;80.19;101711.66;5038348;28;19990;-87
2023/09/09 13:26:20;;;;;;;;;;;;;;;25.13;80.25;101706.13;5036401;28;19928;-81
2023/09/09 13:29:06;;;;;;;;;;;;;;;25.16;82.35;101711.25;5038259;28;20386;-82
2023/09/09 13:31:52;;;;;;;;;;;;;;;25.17;82.45;101707.53;5046700;28;20027;-85
2023/09/09 13:34:38;;;;;;;;;;;;;;;25.16;81.30;101711.25;5020811;28;19928;-82
2023/09/09 13:37:23;;;;;;;;;;;;;;;25.17;82.84;101713.78;5035673;28;20287;-82
2023/09/09 13:40:12;;;;;;;;;;;;;;;25.17;82.80;101710.25;5035717;28;19960;-81
2023/09/09 13:42:58;;;;;;;;;;;;;;;25.12;78.94;101705.28;5040946;28;19955;-84
2023/09/09 13:45:46;;;;;;;;;;;;;;;25.13;82.30;101711.53;5043185;28;20375;-82
2023/09/09 13:48:32;;;;;;;;;;;;;;;25.15;85.02;101706.81;5060857;28;20049;-79
2023/09/09 13:51:17;;;;;;;;;;;;;;;25.15;81.41;101704.97;5047129;28;19924;-79
2023/09/09 13:54:03;;;;;;;;;;;;;;;25.16;80.00;101705.84;5059851;28;20345;-80
2023/09/09 13:56:52;;;;;;;;;;;;;;;25.15;79.45;101699.56;5046378;28;21060;-80
2023/09/09 13:59:38;;;;;;;;;;;;;;;25.16;83.94;101706.66;5046347;28;19920;-79
2023/09/09 14:02:25;;;;;;;;;;;;;;;25.18;82.85;101706.53;5059465;28;19924;-81
2023/09/09 14:05:11;;;;;;;;;;;;;;;25.15;82.23;101706.81;5046270;28;19923;-80